Terminal Aerodrome Forecast
Issued by NWS

Home | Current Version | Previous Version | Text Only | Print | Product List | Glossary On
Versions: 1 2 3 4 5 6 7 8 9 10 11 12 13 14 15
000
FTUS41 KCAR 170500 RRA
TAFBHB
TAF
KBHB 170559Z 1706/1806 VRB03KT 3SM BR SCT050
     FM171200 VRB03KT P6SM FEW250
     FM180300 20004KT 2SM BR SCT003
      AMD LTD TO CLD VIS AND WIND=

USA.gov is the U.S. government's official web portal to all federal, state and local government web resources and services.